sensor_id;sensor_type;location;lat;lon;timestamp;P1;durP1;ratioP1;P2;durP2;ratioP2
13347;SDS011;6743;49.934;9.138;2023-04-09T00:01:47;2.60;;;2.20;;
13347;SDS011;6743;49.934;9.138;2023-04-09T00:04:13;2.00;;;1.80;;
13347;SDS011;6743;49.934;9.138;2023-04-09T00:06:39;2.33;;;1.77;;
13347;SDS011;6743;49.934;9.138;2023-04-09T00:09:05;1.70;;;1.60;;
13347;SDS011;6743;49.934;9.138;2023-04-09T00:11:32;2.83;;;2.07;;
13347;SDS011;6743;49.934;9.138;2023-04-09T00:13:57;2.30;;;1.90;;
13347;SDS011;6743;49.934;9.138;2023-04-09T00:16:23;2.90;;;2.00;;
13347;SDS011;6743;49.934;9.138;2023-04-09T00:18:49;1.70;;;1.60;;
13347;SDS011;6743;49.934;9.138;2023-04-09T00:21:16;1.93;;;1.40;;
13347;SDS011;6743;49.934;9.138;2023-04-09T00:23:42;2.20;;;2.00;;
13347;SDS011;6743;49.934;9.138;2023-04-09T00:26:09;1.70;;;1.53;;
13347;SDS011;6743;49.934;9.138;2023-04-09T00:28:35;1.87;;;1.70;;
13347;SDS011;6743;49.934;9.138;2023-04-09T00:31:01;2.17;;;2.00;;
13347;SDS011;6743;49.934;9.138;2023-04-09T00:33:27;2.60;;;2.30;;
13347;SDS011;6743;49.934;9.138;2023-04-09T00:35:53;5.07;;;2.73;;
13347;SDS011;6743;49.934;9.138;2023-04-09T00:38:19;2.40;;;2.20;;
13347;SDS011;6743;49.934;9.138;2023-04-09T00:40:47;1.73;;;1.57;;
13347;SDS011;6743;49.934;9.138;2023-04-09T00:43:14;2.07;;;1.73;;
13347;SDS011;6743;49.934;9.138;2023-04-09T00:45:40;2.27;;;1.47;;
13347;SDS011;6743;49.934;9.138;2023-04-09T00:48:06;2.00;;;1.70;;
13347;SDS011;6743;49.934;9.138;2023-04-09T00:50:33;3.33;;;2.47;;
13347;SDS011;6743;49.934;9.138;2023-04-09T00:52:58;2.57;;;2.10;;
13347;SDS011;6743;49.934;9.138;2023-04-09T00:55:25;6.47;;;2.70;;
13347;SDS011;6743;49.934;9.138;2023-04-09T00:57:51;2.37;;;2.17;;
13347;SDS011;6743;49.934;9.138;2023-04-09T01:00:26;3.10;;;2.00;;
13347;SDS011;6743;49.934;9.138;2023-04-09T01:02:52;2.60;;;2.00;;
13347;SDS011;6743;49.934;9.138;2023-04-09T01:05:21;2.83;;;2.20;;
13347;SDS011;6743;49.934;9.138;2023-04-09T01:07:53;2.43;;;1.90;;
13347;SDS011;6743;49.934;9.138;2023-04-09T01:10:30;1.67;;;1.57;;
13347;SDS011;6743;49.934;9.138;2023-04-09T01:13:05;1.47;;;1.37;;
13347;SDS011;6743;49.934;9.138;2023-04-09T01:15:35;3.20;;;2.10;;
13347;SDS011;6743;49.934;9.138;2023-04-09T01:18:09;1.67;;;1.57;;
13347;SDS011;6743;49.934;9.138;2023-04-09T01:20:41;2.83;;;2.47;;
13347;SDS011;6743;49.934;9.138;2023-04-09T01:23:15;2.63;;;2.20;;
13347;SDS011;6743;49.934;9.138;2023-04-09T01:25:56;4.40;;;2.10;;
13347;SDS011;6743;49.934;9.138;2023-04-09T01:28:30;2.20;;;1.67;;
13347;SDS011;6743;49.934;9.138;2023-04-09T01:30:58;2.87;;;2.20;;
13347;SDS011;6743;49.934;9.138;2023-04-09T01:33:27;3.97;;;2.27;;
13347;SDS011;6743;49.934;9.138;2023-04-09T01:35:55;3.50;;;2.37;;
13347;SDS011;6743;49.934;9.138;2023-04-09T01:38:23;3.03;;;2.10;;
13347;SDS011;6743;49.934;9.138;2023-04-09T01:40:50;5.13;;;2.90;;
13347;SDS011;6743;49.934;9.138;2023-04-09T01:43:18;3.00;;;2.23;;
13347;SDS011;6743;49.934;9.138;2023-04-09T01:45:47;2.77;;;2.27;;
13347;SDS011;6743;49.934;9.138;2023-04-09T01:48:33;2.20;;;2.00;;
13347;SDS011;6743;49.934;9.138;2023-04-09T01:50:59;2.57;;;2.20;;
13347;SDS011;6743;49.934;9.138;2023-04-09T01:53:26;2.40;;;2.20;;
13347;SDS011;6743;49.934;9.138;2023-04-09T01:55:52;2.73;;;1.93;;
13347;SDS011;6743;49.934;9.138;2023-04-09T01:58:19;3.57;;;2.50;;
13347;SDS011;6743;49.934;9.138;2023-04-09T02:00:46;3.47;;;2.10;;
13347;SDS011;6743;49.934;9.138;2023-04-09T02:03:15;2.90;;;2.30;;
13347;SDS011;6743;49.934;9.138;2023-04-09T02:05:48;4.70;;;2.40;;
13347;SDS011;6743;49.934;9.138;2023-04-09T02:08:20;2.57;;;2.33;;
13347;SDS011;6743;49.934;9.138;2023-04-09T02:10:49;3.60;;;2.53;;
13347;SDS011;6743;49.934;9.138;2023-04-09T02:13:20;2.30;;;1.60;;
13347;SDS011;6743;49.934;9.138;2023-04-09T02:15:48;2.17;;;1.97;;
13347;SDS011;6743;49.934;9.138;2023-04-09T02:18:19;2.40;;;2.20;;
13347;SDS011;6743;49.934;9.138;2023-04-09T02:20:49;3.30;;;2.90;;
13347;SDS011;6743;49.934;9.138;2023-04-09T02:23:15;2.20;;;1.93;;
13347;SDS011;6743;49.934;9.138;2023-04-09T02:25:41;1.70;;;1.60;;
13347;SDS011;6743;49.934;9.138;2023-04-09T02:28:07;2.27;;;2.10;;
13347;SDS011;6743;49.934;9.138;2023-04-09T02:30:33;3.40;;;2.23;;
13347;SDS011;6743;49.934;9.138;2023-04-09T02:33:00;2.27;;;2.07;;
13347;SDS011;6743;49.934;9.138;2023-04-09T02:35:26;3.17;;;1.93;;
13347;SDS011;6743;49.934;9.138;2023-04-09T02:37:52;2.73;;;2.17;;
13347;SDS011;6743;49.934;9.138;2023-04-09T02:40:18;2.10;;;1.77;;
13347;SDS011;6743;49.934;9.138;2023-04-09T02:42:44;2.43;;;2.23;;
13347;SDS011;6743;49.934;9.138;2023-04-09T02:45:10;3.33;;;2.30;;
13347;SDS011;6743;49.934;9.138;2023-04-09T02:47:36;2.50;;;2.30;;
13347;SDS011;6743;49.934;9.138;2023-04-09T02:50:02;2.63;;;2.17;;
13347;SDS011;6743;49.934;9.138;2023-04-09T02:52:29;3.27;;;2.00;;
13347;SDS011;6743;49.934;9.138;2023-04-09T02:54:56;3.27;;;1.87;;
13347;SDS011;6743;49.934;9.138;2023-04-09T02:57:22;3.03;;;1.60;;
13347;SDS011;6743;49.934;9.138;2023-04-09T02:59:48;2.97;;;2.20;;
13347;SDS011;6743;49.934;9.138;2023-04-09T03:02:14;3.50;;;2.67;;
13347;SDS011;6743;49.934;9.138;2023-04-09T03:04:40;3.13;;;2.07;;
13347;SDS011;6743;49.934;9.138;2023-04-09T03:07:07;2.67;;;2.20;;
13347;SDS011;6743;49.934;9.138;2023-04-09T03:09:33;1.70;;;1.60;;
13347;SDS011;6743;49.934;9.138;2023-04-09T03:11:59;1.80;;;1.57;;
13347;SDS011;6743;49.934;9.138;2023-04-09T03:14:26;3.13;;;2.27;;
13347;SDS011;6743;49.934;9.138;2023-04-09T03:16:52;3.90;;;2.83;;
13347;SDS011;6743;49.934;9.138;2023-04-09T03:19:18;3.30;;;2.77;;
13347;SDS011;6743;49.934;9.138;2023-04-09T03:21:44;1.60;;;1.50;;
13347;SDS011;6743;49.934;9.138;2023-04-09T03:24:13;3.03;;;2.33;;
13347;SDS011;6743;49.934;9.138;2023-04-09T03:26:39;2.70;;;1.83;;
13347;SDS011;6743;49.934;9.138;2023-04-09T03:29:06;3.60;;;2.37;;
13347;SDS011;6743;49.934;9.138;2023-04-09T03:31:32;4.60;;;2.70;;
13347;SDS011;6743;49.934;9.138;2023-04-09T03:33:58;2.20;;;2.00;;
13347;SDS011;6743;49.934;9.138;2023-04-09T03:36:24;2.60;;;2.27;;
13347;SDS011;6743;49.934;9.138;2023-04-09T03:38:52;2.97;;;2.30;;
13347;SDS011;6743;49.934;9.138;2023-04-09T03:41:18;3.50;;;2.60;;
13347;SDS011;6743;49.934;9.138;2023-04-09T03:43:44;3.83;;;2.77;;
13347;SDS011;6743;49.934;9.138;2023-04-09T03:46:10;4.50;;;3.20;;
13347;SDS011;6743;49.934;9.138;2023-04-09T03:48:37;4.90;;;3.57;;
13347;SDS011;6743;49.934;9.138;2023-04-09T03:51:03;4.53;;;2.73;;
13347;SDS011;6743;49.934;9.138;2023-04-09T03:53:29;3.20;;;3.00;;
13347;SDS011;6743;49.934;9.138;2023-04-09T03:55:55;3.00;;;2.40;;
13347;SDS011;6743;49.934;9.138;2023-04-09T03:58:22;3.07;;;2.23;;
13347;SDS011;6743;49.934;9.138;2023-04-09T04:00:48;2.67;;;2.43;;
13347;SDS011;6743;49.934;9.138;2023-04-09T04:03:14;2.60;;;2.20;;
13347;SDS011;6743;49.934;9.138;2023-04-09T04:05:40;3.10;;;2.27;;
13347;SDS011;6743;49.934;9.138;2023-04-09T04:08:06;4.07;;;2.43;;
13347;SDS011;6743;49.934;9.138;2023-04-09T04:10:32;3.63;;;2.70;;
13347;SDS011;6743;49.934;9.138;2023-04-09T04:12:58;1.90;;;1.80;;
13347;SDS011;6743;49.934;9.138;2023-04-09T04:15:26;2.50;;;2.30;;
13347;SDS011;6743;49.934;9.138;2023-04-09T04:17:53;4.67;;;3.07;;
13347;SDS011;6743;49.934;9.138;2023-04-09T04:20:19;4.73;;;3.20;;
13347;SDS011;6743;49.934;9.138;2023-04-09T04:22:45;2.97;;;2.43;;
13347;SDS011;6743;49.934;9.138;2023-04-09T04:25:11;3.87;;;2.70;;
13347;SDS011;6743;49.934;9.138;2023-04-09T04:27:40;3.13;;;2.90;;
13347;SDS011;6743;49.934;9.138;2023-04-09T04:30:06;7.53;;;3.47;;
13347;SDS011;6743;49.934;9.138;2023-04-09T04:32:33;3.23;;;2.93;;
13347;SDS011;6743;49.934;9.138;2023-04-09T04:34:59;4.37;;;3.03;;
13347;SDS011;6743;49.934;9.138;2023-04-09T04:37:25;4.63;;;2.90;;
13347;SDS011;6743;49.934;9.138;2023-04-09T04:39:51;5.70;;;3.10;;
13347;SDS011;6743;49.934;9.138;2023-04-09T04:42:17;3.80;;;3.43;;
13347;SDS011;6743;49.934;9.138;2023-04-09T04:44:43;4.20;;;3.03;;
13347;SDS011;6743;49.934;9.138;2023-04-09T04:47:09;5.87;;;3.13;;
13347;SDS011;6743;49.934;9.138;2023-04-09T04:49:36;3.23;;;2.83;;
13347;SDS011;6743;49.934;9.138;2023-04-09T04:52:02;5.30;;;2.97;;
13347;SDS011;6743;49.934;9.138;2023-04-09T04:54:28;2.80;;;2.60;;
13347;SDS011;6743;49.934;9.138;2023-04-09T04:56:54;4.23;;;2.73;;
13347;SDS011;6743;49.934;9.138;2023-04-09T04:59:20;3.93;;;3.03;;
13347;SDS011;6743;49.934;9.138;2023-04-09T05:01:46;3.03;;;2.40;;
13347;SDS011;6743;49.934;9.138;2023-04-09T05:04:12;3.00;;;2.70;;
13347;SDS011;6743;49.934;9.138;2023-04-09T05:06:39;2.60;;;2.40;;
13347;SDS011;6743;49.934;9.138;2023-04-09T05:09:05;5.17;;;3.17;;
13347;SDS011;6743;49.934;9.138;2023-04-09T05:11:31;4.10;;;2.90;;
13347;SDS011;6743;49.934;9.138;2023-04-09T05:13:57;4.37;;;2.77;;
13347;SDS011;6743;49.934;9.138;2023-04-09T05:16:22;3.63;;;2.53;;
13347;SDS011;6743;49.934;9.138;2023-04-09T05:18:48;3.10;;;2.80;;
13347;SDS011;6743;49.934;9.138;2023-04-09T05:21:14;2.90;;;2.63;;
13347;SDS011;6743;49.934;9.138;2023-04-09T05:23:41;3.27;;;2.53;;
13347;SDS011;6743;49.934;9.138;2023-04-09T05:26:07;2.37;;;2.23;;
13347;SDS011;6743;49.934;9.138;2023-04-09T05:28:33;3.50;;;3.20;;
13347;SDS011;6743;49.934;9.138;2023-04-09T05:30:59;4.13;;;2.40;;
13347;SDS011;6743;49.934;9.138;2023-04-09T05:33:25;4.77;;;3.47;;
13347;SDS011;6743;49.934;9.138;2023-04-09T05:35:51;3.60;;;3.00;;
13347;SDS011;6743;49.934;9.138;2023-04-09T05:38:17;3.47;;;3.20;;
13347;SDS011;6743;49.934;9.138;2023-04-09T05:40:44;3.23;;;2.50;;
13347;SDS011;6743;49.934;9.138;2023-04-09T05:43:10;5.03;;;2.87;;
13347;SDS011;6743;49.934;9.138;2023-04-09T05:45:36;5.50;;;3.27;;
13347;SDS011;6743;49.934;9.138;2023-04-09T05:48:02;3.03;;;2.60;;
13347;SDS011;6743;49.934;9.138;2023-04-09T05:50:28;5.30;;;2.93;;
13347;SDS011;6743;49.934;9.138;2023-04-09T05:52:54;5.83;;;4.07;;
13347;SDS011;6743;49.934;9.138;2023-04-09T05:55:20;7.13;;;3.80;;
13347;SDS011;6743;49.934;9.138;2023-04-09T05:57:47;2.67;;;2.43;;
13347;SDS011;6743;49.934;9.138;2023-04-09T06:00:16;3.57;;;2.70;;
13347;SDS011;6743;49.934;9.138;2023-04-09T06:02:42;4.00;;;3.23;;
13347;SDS011;6743;49.934;9.138;2023-04-09T06:05:08;4.40;;;2.70;;
13347;SDS011;6743;49.934;9.138;2023-04-09T06:07:35;5.67;;;3.03;;
13347;SDS011;6743;49.934;9.138;2023-04-09T06:10:01;3.53;;;2.97;;
13347;SDS011;6743;49.934;9.138;2023-04-09T06:12:27;5.33;;;2.63;;
13347;SDS011;6743;49.934;9.138;2023-04-09T06:14:54;7.57;;;3.37;;
13347;SDS011;6743;49.934;9.138;2023-04-09T06:17:19;2.30;;;2.10;;
13347;SDS011;6743;49.934;9.138;2023-04-09T06:19:45;3.47;;;2.50;;
13347;SDS011;6743;49.934;9.138;2023-04-09T06:22:11;3.60;;;2.27;;
13347;SDS011;6743;49.934;9.138;2023-04-09T06:24:37;4.43;;;2.70;;
13347;SDS011;6743;49.934;9.138;2023-04-09T06:27:03;3.20;;;2.90;;
13347;SDS011;6743;49.934;9.138;2023-04-09T06:29:29;4.83;;;2.90;;
13347;SDS011;6743;49.934;9.138;2023-04-09T06:31:56;3.97;;;2.83;;
13347;SDS011;6743;49.934;9.138;2023-04-09T06:34:22;4.87;;;3.30;;
13347;SDS011;6743;49.934;9.138;2023-04-09T06:36:48;4.00;;;3.17;;
13347;SDS011;6743;49.934;9.138;2023-04-09T06:39:14;5.57;;;3.40;;
13347;SDS011;6743;49.934;9.138;2023-04-09T06:41:40;4.13;;;2.87;;
13347;SDS011;6743;49.934;9.138;2023-04-09T06:44:06;4.37;;;3.13;;
13347;SDS011;6743;49.934;9.138;2023-04-09T06:46:32;5.50;;;3.50;;
13347;SDS011;6743;49.934;9.138;2023-04-09T06:48:59;3.70;;;2.80;;
13347;SDS011;6743;49.934;9.138;2023-04-09T06:51:25;5.37;;;2.83;;
13347;SDS011;6743;49.934;9.138;2023-04-09T06:53:51;3.93;;;2.73;;
13347;SDS011;6743;49.934;9.138;2023-04-09T06:56:17;5.43;;;2.83;;
13347;SDS011;6743;49.934;9.138;2023-04-09T06:58:43;3.20;;;2.63;;
13347;SDS011;6743;49.934;9.138;2023-04-09T07:01:09;2.83;;;2.50;;
13347;SDS011;6743;49.934;9.138;2023-04-09T07:03:35;2.80;;;2.60;;
13347;SDS011;6743;49.934;9.138;2023-04-09T07:06:02;4.10;;;2.77;;
13347;SDS011;6743;49.934;9.138;2023-04-09T07:08:28;4.33;;;2.80;;
13347;SDS011;6743;49.934;9.138;2023-04-09T07:10:54;4.83;;;2.77;;
13347;SDS011;6743;49.934;9.138;2023-04-09T07:13:20;3.30;;;2.43;;
13347;SDS011;6743;49.934;9.138;2023-04-09T07:15:46;3.03;;;2.67;;
13347;SDS011;6743;49.934;9.138;2023-04-09T07:18:12;5.07;;;2.90;;
13347;SDS011;6743;49.934;9.138;2023-04-09T07:20:38;3.57;;;2.60;;
13347;SDS011;6743;49.934;9.138;2023-04-09T07:23:05;5.23;;;2.80;;
13347;SDS011;6743;49.934;9.138;2023-04-09T07:25:31;7.67;;;3.03;;
13347;SDS011;6743;49.934;9.138;2023-04-09T07:27:58;4.03;;;2.80;;
13347;SDS011;6743;49.934;9.138;2023-04-09T07:30:24;5.30;;;3.33;;
13347;SDS011;6743;49.934;9.138;2023-04-09T07:32:50;6.53;;;3.30;;
13347;SDS011;6743;49.934;9.138;2023-04-09T07:35:16;4.33;;;3.37;;
13347;SDS011;6743;49.934;9.138;2023-04-09T07:37:42;6.13;;;3.40;;
13347;SDS011;6743;49.934;9.138;2023-04-09T07:40:09;4.47;;;3.60;;
13347;SDS011;6743;49.934;9.138;2023-04-09T07:42:36;7.63;;;3.90;;
13347;SDS011;6743;49.934;9.138;2023-04-09T07:45:02;3.93;;;2.70;;
13347;SDS011;6743;49.934;9.138;2023-04-09T07:47:29;7.57;;;3.63;;
13347;SDS011;6743;49.934;9.138;2023-04-09T07:49:55;4.37;;;3.13;;
13347;SDS011;6743;49.934;9.138;2023-04-09T07:52:21;4.43;;;3.10;;
13347;SDS011;6743;49.934;9.138;2023-04-09T07:54:47;5.70;;;3.60;;
13347;SDS011;6743;49.934;9.138;2023-04-09T07:57:14;5.93;;;3.50;;
13347;SDS011;6743;49.934;9.138;2023-04-09T07:59:40;4.37;;;2.90;;
13347;SDS011;6743;49.934;9.138;2023-04-09T08:02:06;4.70;;;3.00;;
13347;SDS011;6743;49.934;9.138;2023-04-09T08:04:32;5.07;;;3.50;;
13347;SDS011;6743;49.934;9.138;2023-04-09T08:06:58;4.40;;;3.57;;
13347;SDS011;6743;49.934;9.138;2023-04-09T08:09:24;6.77;;;4.17;;
13347;SDS011;6743;49.934;9.138;2023-04-09T08:11:50;6.37;;;3.43;;
13347;SDS011;6743;49.934;9.138;2023-04-09T08:14:17;5.87;;;3.50;;
13347;SDS011;6743;49.934;9.138;2023-04-09T08:16:44;6.00;;;4.00;;
13347;SDS011;6743;49.934;9.138;2023-04-09T08:19:12;4.80;;;3.13;;
13347;SDS011;6743;49.934;9.138;2023-04-09T08:21:40;6.53;;;4.63;;
13347;SDS011;6743;49.934;9.138;2023-04-09T08:24:07;5.43;;;4.50;;
13347;SDS011;6743;49.934;9.138;2023-04-09T08:26:35;4.50;;;3.10;;
13347;SDS011;6743;49.934;9.138;2023-04-09T08:29:01;6.10;;;3.90;;
13347;SDS011;6743;49.934;9.138;2023-04-09T08:31:28;6.73;;;3.70;;
13347;SDS011;6743;49.934;9.138;2023-04-09T08:33:54;4.67;;;3.60;;
13347;SDS011;6743;49.934;9.138;2023-04-09T08:36:20;6.17;;;4.13;;
13347;SDS011;6743;49.934;9.138;2023-04-09T08:38:46;8.00;;;4.17;;
13347;SDS011;6743;49.934;9.138;2023-04-09T08:41:16;5.63;;;3.73;;
13347;SDS011;6743;49.934;9.138;2023-04-09T08:43:44;6.40;;;3.77;;
13347;SDS011;6743;49.934;9.138;2023-04-09T08:46:11;5.30;;;3.57;;
13347;SDS011;6743;49.934;9.138;2023-04-09T08:48:40;5.53;;;3.93;;
13347;SDS011;6743;49.934;9.138;2023-04-09T08:51:08;8.87;;;5.53;;
13347;SDS011;6743;49.934;9.138;2023-04-09T08:53:38;7.00;;;4.77;;
13347;SDS011;6743;49.934;9.138;2023-04-09T08:56:07;5.50;;;3.47;;
13347;SDS011;6743;49.934;9.138;2023-04-09T08:58:33;5.77;;;4.43;;
13347;SDS011;6743;49.934;9.138;2023-04-09T09:00:59;6.00;;;3.97;;
13347;SDS011;6743;49.934;9.138;2023-04-09T09:03:25;6.57;;;4.33;;
13347;SDS011;6743;49.934;9.138;2023-04-09T09:05:52;7.70;;;4.57;;
13347;SDS011;6743;49.934;9.138;2023-04-09T09:08:21;6.00;;;3.90;;
13347;SDS011;6743;49.934;9.138;2023-04-09T09:10:48;5.73;;;3.83;;
13347;SDS011;6743;49.934;9.138;2023-04-09T09:13:18;5.93;;;3.97;;
13347;SDS011;6743;49.934;9.138;2023-04-09T09:15:46;3.70;;;2.97;;
13347;SDS011;6743;49.934;9.138;2023-04-09T09:18:15;3.75;;;3.05;;
13347;SDS011;6743;49.934;9.138;2023-04-09T09:20:41;3.73;;;3.40;;
13347;SDS011;6743;49.934;9.138;2023-04-09T09:23:08;4.50;;;3.47;;
13347;SDS011;6743;49.934;9.138;2023-04-09T09:25:36;3.53;;;2.72;;
13347;SDS011;6743;49.934;9.138;2023-04-09T09:28:05;5.10;;;3.17;;
13347;SDS011;6743;49.934;9.138;2023-04-09T09:30:33;3.25;;;2.78;;
13347;SDS011;6743;49.934;9.138;2023-04-09T09:33:03;4.97;;;3.20;;
13347;SDS011;6743;49.934;9.138;2023-04-09T09:35:30;4.75;;;3.28;;
13347;SDS011;6743;49.934;9.138;2023-04-09T09:38:12;3.92;;;2.87;;
13347;SDS011;6743;49.934;9.138;2023-04-09T09:40:40;3.62;;;3.20;;
13347;SDS011;6743;49.934;9.138;2023-04-09T09:43:06;2.80;;;2.50;;
13347;SDS011;6743;49.934;9.138;2023-04-09T09:45:32;4.95;;;2.92;;
13347;SDS011;6743;49.934;9.138;2023-04-09T09:47:58;2.33;;;2.12;;
13347;SDS011;6743;49.934;9.138;2023-04-09T09:50:24;3.53;;;2.62;;
13347;SDS011;6743;49.934;9.138;2023-04-09T09:52:53;4.72;;;3.10;;
13347;SDS011;6743;49.934;9.138;2023-04-09T09:55:26;4.15;;;2.30;;
13347;SDS011;6743;49.934;9.138;2023-04-09T09:57:56;3.72;;;2.90;;
13347;SDS011;6743;49.934;9.138;2023-04-09T10:00:25;3.20;;;2.80;;
13347;SDS011;6743;49.934;9.138;2023-04-09T10:02:55;5.85;;;3.42;;
13347;SDS011;6743;49.934;9.138;2023-04-09T10:05:23;4.47;;;3.55;;
13347;SDS011;6743;49.934;9.138;2023-04-09T10:07:51;3.92;;;3.37;;
13347;SDS011;6743;49.934;9.138;2023-04-09T10:10:18;3.05;;;2.70;;
13347;SDS011;6743;49.934;9.138;2023-04-09T10:12:46;3.30;;;2.70;;
13347;SDS011;6743;49.934;9.138;2023-04-09T10:15:12;7.65;;;5.32;;
13347;SDS011;6743;49.934;9.138;2023-04-09T10:17:38;8.35;;;4.82;;
13347;SDS011;6743;49.934;9.138;2023-04-09T10:20:06;4.40;;;2.85;;
13347;SDS011;6743;49.934;9.138;2023-04-09T10:22:37;4.50;;;3.45;;
13347;SDS011;6743;49.934;9.138;2023-04-09T10:25:03;2.10;;;1.92;;
13347;SDS011;6743;49.934;9.138;2023-04-09T10:27:30;3.92;;;2.80;;
13347;SDS011;6743;49.934;9.138;2023-04-09T10:29:57;3.65;;;2.58;;
13347;SDS011;6743;49.934;9.138;2023-04-09T10:32:24;3.83;;;2.85;;
13347;SDS011;6743;49.934;9.138;2023-04-09T10:34:54;3.08;;;2.67;;
13347;SDS011;6743;49.934;9.138;2023-04-09T10:37:22;2.45;;;2.20;;
13347;SDS011;6743;49.934;9.138;2023-04-09T10:39:49;2.12;;;1.60;;
13347;SDS011;6743;49.934;9.138;2023-04-09T10:42:17;2.42;;;2.22;;
13347;SDS011;6743;49.934;9.138;2023-04-09T10:44:46;3.70;;;2.30;;
13347;SDS011;6743;49.934;9.138;2023-04-09T10:47:31;3.67;;;2.72;;
13347;SDS011;6743;49.934;9.138;2023-04-09T10:49:59;2.33;;;2.12;;
13347;SDS011;6743;49.934;9.138;2023-04-09T10:52:39;3.58;;;2.28;;
13347;SDS011;6743;49.934;9.138;2023-04-09T10:55:06;4.07;;;3.17;;
13347;SDS011;6743;49.934;9.138;2023-04-09T10:57:34;2.55;;;2.25;;
13347;SDS011;6743;49.934;9.138;2023-04-09T11:00:00;3.30;;;2.60;;
13347;SDS011;6743;49.934;9.138;2023-04-09T11:05:35;2.90;;;2.40;;
13347;SDS011;6743;49.934;9.138;2023-04-09T11:08:06;3.42;;;2.33;;
13347;SDS011;6743;49.934;9.138;2023-04-09T11:10:33;2.37;;;1.98;;
13347;SDS011;6743;49.934;9.138;2023-04-09T11:13:00;2.58;;;2.25;;
13347;SDS011;6743;49.934;9.138;2023-04-09T11:15:27;2.53;;;2.10;;
13347;SDS011;6743;49.934;9.138;2023-04-09T11:17:53;2.80;;;2.37;;
13347;SDS011;6743;49.934;9.138;2023-04-09T11:20:21;2.50;;;2.25;;
13347;SDS011;6743;49.934;9.138;2023-04-09T11:22:48;2.67;;;2.30;;
13347;SDS011;6743;49.934;9.138;2023-04-09T11:25:18;3.60;;;2.65;;
13347;SDS011;6743;49.934;9.138;2023-04-09T11:27:45;2.60;;;2.40;;
13347;SDS011;6743;49.934;9.138;2023-04-09T11:30:11;2.47;;;2.10;;
13347;SDS011;6743;49.934;9.138;2023-04-09T11:32:37;2.20;;;2.00;;
13347;SDS011;6743;49.934;9.138;2023-04-09T11:35:04;3.85;;;2.75;;
13347;SDS011;6743;49.934;9.138;2023-04-09T11:37:37;2.95;;;2.20;;
13347;SDS011;6743;49.934;9.138;2023-04-09T11:40:03;2.72;;;2.50;;
13347;SDS011;6743;49.934;9.138;2023-04-09T11:42:30;2.70;;;2.50;;
13347;SDS011;6743;49.934;9.138;2023-04-09T11:44:56;2.97;;;2.50;;
13347;SDS011;6743;49.934;9.138;2023-04-09T11:47:22;3.08;;;2.65;;
13347;SDS011;6743;49.934;9.138;2023-04-09T11:49:49;2.53;;;2.30;;
13347;SDS011;6743;49.934;9.138;2023-04-09T11:52:15;2.85;;;2.65;;
13347;SDS011;6743;49.934;9.138;2023-04-09T11:54:42;4.10;;;2.20;;
13347;SDS011;6743;49.934;9.138;2023-04-09T11:57:13;2.72;;;2.53;;
13347;SDS011;6743;49.934;9.138;2023-04-09T11:59:39;3.60;;;2.40;;
13347;SDS011;6743;49.934;9.138;2023-04-09T12:02:06;2.95;;;2.42;;
13347;SDS011;6743;49.934;9.138;2023-04-09T12:04:32;2.28;;;2.10;;
13347;SDS011;6743;49.934;9.138;2023-04-09T12:06:58;4.68;;;2.42;;
13347;SDS011;6743;49.934;9.138;2023-04-09T12:09:24;3.22;;;2.30;;
13347;SDS011;6743;49.934;9.138;2023-04-09T12:11:51;2.37;;;2.17;;
13347;SDS011;6743;49.934;9.138;2023-04-09T12:14:17;2.62;;;2.17;;
13347;SDS011;6743;49.934;9.138;2023-04-09T12:16:49;3.15;;;2.45;;
13347;SDS011;6743;49.934;9.138;2023-04-09T12:19:15;2.60;;;2.35;;
13347;SDS011;6743;49.934;9.138;2023-04-09T12:21:45;2.58;;;2.17;;
13347;SDS011;6743;49.934;9.138;2023-04-09T12:24:12;2.72;;;2.30;;
13347;SDS011;6743;49.934;9.138;2023-04-09T12:26:38;2.30;;;2.10;;
13347;SDS011;6743;49.934;9.138;2023-04-09T12:29:04;3.05;;;2.22;;
13347;SDS011;6743;49.934;9.138;2023-04-09T12:31:31;3.17;;;2.60;;
13347;SDS011;6743;49.934;9.138;2023-04-09T12:33:57;2.95;;;1.98;;
13347;SDS011;6743;49.934;9.138;2023-04-09T12:36:23;4.85;;;3.47;;
13347;SDS011;6743;49.934;9.138;2023-04-09T12:38:49;2.35;;;2.15;;
13347;SDS011;6743;49.934;9.138;2023-04-09T12:41:15;2.05;;;1.75;;
13347;SDS011;6743;49.934;9.138;2023-04-09T12:43:41;2.03;;;1.83;;
13347;SDS011;6743;49.934;9.138;2023-04-09T12:46:08;2.83;;;2.10;;
13347;SDS011;6743;49.934;9.138;2023-04-09T12:48:34;2.00;;;1.90;;
13347;SDS011;6743;49.934;9.138;2023-04-09T12:51:00;3.25;;;2.55;;
13347;SDS011;6743;49.934;9.138;2023-04-09T12:53:27;2.20;;;2.00;;
13347;SDS011;6743;49.934;9.138;2023-04-09T12:55:53;2.47;;;2.20;;
13347;SDS011;6743;49.934;9.138;2023-04-09T12:58:19;1.85;;;1.62;;
13347;SDS011;6743;49.934;9.138;2023-04-09T13:00:45;2.55;;;2.10;;
13347;SDS011;6743;49.934;9.138;2023-04-09T13:03:11;2.58;;;2.05;;
13347;SDS011;6743;49.934;9.138;2023-04-09T13:05:40;2.97;;;2.60;;
13347;SDS011;6743;49.934;9.138;2023-04-09T13:08:06;2.17;;;2.03;;
13347;SDS011;6743;49.934;9.138;2023-04-09T13:10:32;3.62;;;2.40;;
13347;SDS011;6743;49.934;9.138;2023-04-09T13:12:58;2.05;;;1.90;;
13347;SDS011;6743;49.934;9.138;2023-04-09T13:15:24;2.25;;;2.05;;
13347;SDS011;6743;49.934;9.138;2023-04-09T13:17:51;2.40;;;1.77;;
13347;SDS011;6743;49.934;9.138;2023-04-09T13:20:18;1.75;;;1.65;;
13347;SDS011;6743;49.934;9.138;2023-04-09T13:22:45;2.47;;;2.10;;
13347;SDS011;6743;49.934;9.138;2023-04-09T13:25:12;1.90;;;1.77;;
13347;SDS011;6743;49.934;9.138;2023-04-09T13:27:39;2.53;;;1.80;;
13347;SDS011;6743;49.934;9.138;2023-04-09T13:30:05;2.17;;;1.83;;
13347;SDS011;6743;49.934;9.138;2023-04-09T13:32:32;2.00;;;1.80;;
13347;SDS011;6743;49.934;9.138;2023-04-09T13:34:58;2.20;;;1.92;;
13347;SDS011;6743;49.934;9.138;2023-04-09T13:37:25;2.55;;;2.08;;
13347;SDS011;6743;49.934;9.138;2023-04-09T13:39:51;2.28;;;2.05;;
13347;SDS011;6743;49.934;9.138;2023-04-09T13:42:17;1.77;;;1.65;;
13347;SDS011;6743;49.934;9.138;2023-04-09T13:44:43;2.30;;;1.77;;
13347;SDS011;6743;49.934;9.138;2023-04-09T13:47:09;2.05;;;1.85;;
13347;SDS011;6743;49.934;9.138;2023-04-09T13:49:37;2.95;;;2.17;;
13347;SDS011;6743;49.934;9.138;2023-04-09T13:52:03;2.33;;;2.03;;
13347;SDS011;6743;49.934;9.138;2023-04-09T13:54:30;2.37;;;2.17;;
13347;SDS011;6743;49.934;9.138;2023-04-09T13:56:56;2.03;;;1.80;;
13347;SDS011;6743;49.934;9.138;2023-04-09T13:59:22;2.03;;;1.62;;
13347;SDS011;6743;49.934;9.138;2023-04-09T14:01:48;2.30;;;2.10;;
13347;SDS011;6743;49.934;9.138;2023-04-09T14:04:14;1.98;;;1.83;;
13347;SDS011;6743;49.934;9.138;2023-04-09T14:06:40;2.15;;;1.98;;
13347;SDS011;6743;49.934;9.138;2023-04-09T14:09:07;2.20;;;2.00;;
13347;SDS011;6743;49.934;9.138;2023-04-09T14:11:33;1.92;;;1.73;;
13347;SDS011;6743;49.934;9.138;2023-04-09T14:13:59;1.75;;;1.62;;
13347;SDS011;6743;49.934;9.138;2023-04-09T14:16:25;1.75;;;1.65;;
13347;SDS011;6743;49.934;9.138;2023-04-09T14:18:52;1.85;;;1.70;;
13347;SDS011;6743;49.934;9.138;2023-04-09T14:21:18;1.73;;;1.60;;
13347;SDS011;6743;49.934;9.138;2023-04-09T14:23:44;1.60;;;1.50;;
13347;SDS011;6743;49.934;9.138;2023-04-09T14:26:10;1.50;;;1.40;;
13347;SDS011;6743;49.934;9.138;2023-04-09T14:28:36;2.00;;;1.70;;
13347;SDS011;6743;49.934;9.138;2023-04-09T14:31:02;1.87;;;1.50;;
13347;SDS011;6743;49.934;9.138;2023-04-09T14:33:28;2.28;;;2.00;;
13347;SDS011;6743;49.934;9.138;2023-04-09T14:35:55;1.80;;;1.65;;
13347;SDS011;6743;49.934;9.138;2023-04-09T14:38:21;2.08;;;1.87;;
13347;SDS011;6743;49.934;9.138;2023-04-09T14:40:48;1.77;;;1.67;;
13347;SDS011;6743;49.934;9.138;2023-04-09T14:43:14;1.75;;;1.65;;
13347;SDS011;6743;49.934;9.138;2023-04-09T14:45:41;2.75;;;2.17;;
13347;SDS011;6743;49.934;9.138;2023-04-09T14:48:07;2.28;;;1.90;;
13347;SDS011;6743;49.934;9.138;2023-04-09T14:50:33;1.95;;;1.85;;
13347;SDS011;6743;49.934;9.138;2023-04-09T14:53:00;2.97;;;2.05;;
13347;SDS011;6743;49.934;9.138;2023-04-09T14:55:27;1.98;;;1.85;;
13347;SDS011;6743;49.934;9.138;2023-04-09T14:57:53;1.83;;;1.73;;
13347;SDS011;6743;49.934;9.138;2023-04-09T15:00:19;2.17;;;1.90;;
13347;SDS011;6743;49.934;9.138;2023-04-09T15:02:46;2.30;;;1.95;;